Heat Index SAI AWOS Graphical Display Untitled Document
Phillipsburg Municipal , Kansas (PHG)
280
13:56
18/10/20
06
N/A
N/A
30.38
N/A
1907
43(F), 6(C)
34(F), 1(C)
39 F
70%
CLR
10
N/A
N/A
N/A
13:56 zulu Wind 280 at 06 Knots, Altimeter 30.38
METAR KPHG 201356Z AUTO 28006KT 10SM CLR 06/01 A3038 A02
METAR:
FAA Disclaimer--Advisory Use ONLY, not for flight info-- 10/06/2008: Welcome to the Phillipsburg Municipal , Kansas (PHG) Graphical AWOS weather display. Airport 785-543-5424, AWOS: 119.125 AWOS Phone Number: 785/543-8960
INFO:
Wind Direction:
Wind Speed:
Wind Gust:
Wind Variable:
Altimeter:
Dens Alt:
Elev:
Temp:
Dwpt:
Wind Chill
Rel Humidity:
Ceiling:
Visibility:
Prsnt Wea:
PCPN:
Remarks:
How to read the WebPage